Time;durP1;ratioP1;P1;durP2;ratioP2;P2;SDS_P1;SDS_P2;PMS_P1;PMS_P2;Temp;Humidity;BMP_temperature;BMP_pressure;BME280_temperature;BME280_humidity;BME280_pressure;Samples;Min_cycle;Max_cycle;Signal;HPM_P1;HPM_P2
2022/12/20 00:00:56;;;;;;;88.45;42.33;;;;;;;-5.40;91.78;102390.94;1471762;88;22279;-83
2022/12/20 00:03:23;;;;;;;107.75;48.95;;;;;;;-5.39;91.76;102391.35;1469697;88;21451;-82
2022/12/20 00:05:49;;;;;;;114.15;51.73;;;;;;;-5.36;92.01;102396.95;1477999;88;22323;-83
2022/12/20 00:08:16;;;;;;;112.22;50.20;;;;;;;-5.30;91.77;102395.66;1471208;88;22391;-83
2022/12/20 00:10:44;;;;;;;102.78;49.25;;;;;;;-5.24;91.59;102389.21;1473756;88;21391;-83
2022/12/20 00:13:12;;;;;;;113.03;49.23;;;;;;;-5.22;91.27;102381.05;1471419;88;21355;-83
2022/12/20 00:15:38;;;;;;;169.22;65.47;;;;;;;-5.18;90.86;102384.05;1472618;88;21422;-83
2022/12/20 00:18:04;;;;;;;184.90;77.00;;;;;;;-5.19;90.28;102396.53;1475615;88;22352;-83
2022/12/20 00:20:30;;;;;;;190.77;75.35;;;;;;;-5.15;90.58;102390.53;1469213;88;21406;-82
2022/12/20 00:22:56;;;;;;;162.32;71.45;;;;;;;-5.10;90.62;102386.64;1466058;88;22384;-82
2022/12/20 00:25:23;;;;;;;157.57;62.63;;;;;;;-5.11;90.26;102379.33;1476512;88;21326;-82
2022/12/20 00:27:49;;;;;;;131.70;57.15;;;;;;;-5.08;90.04;102381.91;1479546;88;21535;-83
2022/12/20 00:30:17;;;;;;;121.65;56.63;;;;;;;-5.08;90.19;102374.16;1465639;88;22169;-83
2022/12/20 00:32:45;;;;;;;132.82;54.85;;;;;;;-5.09;90.10;102371.56;1467691;88;22316;-84
2022/12/20 00:35:11;;;;;;;137.15;57.05;;;;;;;-5.07;89.84;102366.84;1469947;88;21414;-83
2022/12/20 00:37:38;;;;;;;132.25;56.65;;;;;;;-5.02;89.86;102366.41;1475574;88;21318;-83
2022/12/20 00:40:06;;;;;;;114.47;53.13;;;;;;;-4.98;89.74;102367.27;1473965;88;22249;-84
2022/12/20 00:42:32;;;;;;;120.20;53.83;;;;;;;-4.97;90.05;102370.30;1476792;88;21414;-84
2022/12/20 00:44:59;;;;;;;116.80;51.53;;;;;;;-4.93;90.00;102362.95;1473709;88;21348;-83
2022/12/20 00:47:25;;;;;;;111.10;49.97;;;;;;;-4.90;90.20;102364.25;1474799;88;21546;-83
2022/12/20 00:49:51;;;;;;;131.37;54.85;;;;;;;-4.84;90.35;102363.38;1476805;88;21686;-84
2022/12/20 00:52:17;;;;;;;112.37;55.57;;;;;;;-4.78;90.59;102364.22;1474305;88;21458;-83
2022/12/20 00:54:43;;;;;;;108.40;49.03;;;;;;;-4.74;90.82;102359.93;1477896;88;21589;-83
2022/12/20 00:57:09;;;;;;;111.65;50.33;;;;;;;-4.67;90.68;102359.04;1478306;88;21540;-81
2022/12/20 00:59:35;;;;;;;112.37;50.33;;;;;;;-4.62;90.50;102357.75;1475492;88;21863;-83
2022/12/20 01:02:01;;;;;;;121.07;53.55;;;;;;;-4.59;90.56;102349.98;1472111;88;22095;-84
2022/12/20 01:04:27;;;;;;;102.20;49.33;;;;;;;-4.52;90.40;102353.41;1470161;88;21385;-82
2022/12/20 01:06:53;;;;;;;110.72;52.75;;;;;;;-4.47;90.32;102356.84;1473570;88;21459;-83
2022/12/20 01:09:19;;;;;;;100.50;50.33;;;;;;;-4.44;90.59;102356.84;1476072;88;21318;-83
2022/12/20 01:11:45;;;;;;;110.10;51.83;;;;;;;-4.39;90.72;102355.10;1475678;88;21421;-84
2022/12/20 01:14:14;;;;;;;98.50;49.00;;;;;;;-4.33;90.73;102348.17;1470271;88;21659;-83
2022/12/20 01:16:44;;;;;;;109.75;52.45;;;;;;;-4.30;90.99;102348.59;1468757;88;21474;-84
2022/12/20 01:19:14;;;;;;;114.17;53.45;;;;;;;-4.29;90.70;102349.02;1471263;88;21377;-85
2022/12/20 01:21:43;;;;;;;111.60;53.38;;;;;;;-4.25;90.50;102348.16;1456324;88;21856;-85
2022/12/20 01:24:17;;;;;;;103.02;51.70;;;;;;;-4.23;90.59;102342.95;1465074;88;21488;-83
2022/12/20 01:26:45;;;;;;;107.75;52.80;;;;;;;-4.22;90.60;102339.09;1468052;88;22221;-84
2022/12/20 01:29:12;;;;;;;128.75;58.73;;;;;;;-4.20;90.94;102334.78;1462171;88;22183;-84
2022/12/20 01:31:39;;;;;;;129.90;59.65;;;;;;;-4.20;90.45;102323.14;1471522;88;21399;-84
2022/12/20 01:34:06;;;;;;;129.07;59.60;;;;;;;-4.16;90.38;102323.98;1475512;88;21326;-84
2022/12/20 01:36:36;;;;;;;134.27;61.23;;;;;;;-4.14;90.32;102321.81;1473060;88;21414;-84
2022/12/20 01:39:14;;;;;;;130.95;56.92;;;;;;;-4.14;90.08;102321.81;1458597;88;21355;-81
2022/12/20 01:41:43;;;;;;;125.15;57.83;;;;;;;-4.15;90.43;102321.81;1475235;88;22316;-82
2022/12/20 01:44:23;;;;;;;125.70;58.92;;;;;;;-4.17;90.35;102317.07;1472626;88;22464;-81
2022/12/20 01:46:50;;;;;;;95.77;45.08;;;;;;;-4.19;90.71;102324.85;1474396;88;22309;-83
2022/12/20 01:49:25;;;;;;;128.90;58.02;;;;;;;-4.20;90.80;102323.14;1474964;87;21334;-83
2022/12/20 01:52:14;;;;;;;133.85;59.93;;;;;;;-4.19;90.74;102316.24;1476618;88;21466;-84
2022/12/20 01:54:57;;;;;;;128.27;61.28;;;;;;;-4.18;90.88;102313.62;1473394;88;21872;-80
2022/12/20 01:57:33;;;;;;;134.95;61.85;;;;;;;-4.14;90.74;102305.02;1465573;88;21378;-85
2022/12/20 02:00:00;;;;;;;117.90;60.10;;;;;;;-4.11;90.74;102310.60;1477347;88;21392;-83
2022/12/20 02:02:26;;;;;;;119.05;58.17;;;;;;;-4.10;90.71;102298.94;1478651;88;22265;-84
2022/12/20 02:04:52;;;;;;;117.90;58.13;;;;;;;-4.08;90.58;102304.13;1457152;88;21459;-83
2022/12/20 02:07:23;;;;;;;130.25;58.13;;;;;;;-4.07;90.82;102293.34;1469807;88;21510;-81
2022/12/20 02:09:51;;;;;;;123.78;60.75;;;;;;;-4.06;90.52;102298.92;1475075;88;21540;-82
2022/12/20 02:12:21;;;;;;;110.25;56.25;;;;;;;-4.05;90.42;102291.61;1469633;88;21370;-82
2022/12/20 02:15:36;;;;;;;104.55;55.55;;;;;;;-4.05;90.42;102276.94;1485169;88;22242;-82
2022/12/20 02:18:13;;;;;;;116.08;52.73;;;;;;;-4.03;90.42;102275.62;1469864;88;21510;-82
2022/12/20 02:21:06;;;;;;;112.47;53.80;;;;;;;-4.02;90.40;102280.80;1475421;88;22389;-82
2022/12/20 02:24:05;;;;;;;109.78;52.17;;;;;;;-4.04;90.58;102280.38;1472337;88;21370;-83
2022/12/20 02:27:11;;;;;;;94.03;50.65;;;;;;;-4.04;90.41;102272.19;1474284;88;21507;-84
2022/12/20 02:30:07;;;;;;;104.05;49.25;;;;;;;-4.02;90.64;102268.31;1471738;88;22317;-84
2022/12/20 02:32:42;;;;;;;111.77;50.70;;;;;;;-4.00;90.85;102260.97;1472357;88;21422;-83
2022/12/20 02:35:11;;;;;;;103.07;51.13;;;;;;;-3.95;90.86;102263.51;1469154;88;21841;-82
2022/12/20 02:37:55;;;;;;;98.67;49.08;;;;;;;-3.92;91.07;102259.61;1468481;88;22309;-84
2022/12/20 02:40:29;;;;;;;105.15;51.95;;;;;;;-3.94;91.02;102255.75;1477417;88;21361;-83
2022/12/20 02:43:00;;;;;;;95.87;45.33;;;;;;;-3.93;91.05;102259.19;1469890;88;21451;-83
2022/12/20 02:45:32;;;;;;;;;;;;;;;-3.91;91.26;102244.09;1469795;88;21452;-83
2022/12/20 02:48:03;;;;;;;104.40;50.70;;;;;;;-3.88;91.70;102244.50;1478735;88;20289;-83
2022/12/20 02:50:40;;;;;;;117.00;53.23;;;;;;;-3.84;91.46;102235.84;1473400;88;21407;-82
2022/12/20 02:53:07;;;;;;;115.15;51.37;;;;;;;-3.79;91.32;102235.81;1477281;88;21363;-83
2022/12/20 02:55:41;;;;;;;109.92;50.83;;;;;;;-3.78;91.09;102233.20;1474044;88;21477;-83
2022/12/20 02:58:31;;;;;;;113.22;50.83;;;;;;;-3.75;91.12;102229.29;1474033;88;21296;-83
2022/12/20 03:01:03;;;;;;;105.25;50.25;;;;;;;-3.72;91.34;102233.14;1471528;88;21458;-84
2022/12/20 03:03:32;;;;;;;111.00;51.00;;;;;;;-3.70;91.22;102235.73;1461611;88;21347;-82
2022/12/20 03:05:59;;;;;;;101.53;50.05;;;;;;;-3.68;91.20;102229.68;1470554;88;22235;-83
2022/12/20 03:08:25;;;;;;;89.00;44.42;;;;;;;-3.64;91.20;102231.36;1469468;88;21444;-83
2022/12/20 03:10:53;;;;;;;91.33;41.20;;;;;;;-3.59;91.38;102230.48;1472766;88;21304;-82
2022/12/20 03:13:22;;;;;;;80.90;42.70;;;;;;;-3.58;91.24;102225.27;1478863;88;22454;-82
2022/12/20 03:15:48;;;;;;;80.50;40.33;;;;;;;-3.55;91.00;102233.00;1473816;88;21304;-81
2022/12/20 03:18:15;;;;;;;81.47;40.25;;;;;;;-3.51;91.03;102226.95;1469358;88;21356;-83
2022/12/20 03:20:42;;;;;;;76.15;37.67;;;;;;;-3.47;91.03;102228.62;1481188;88;21319;-82
2022/12/20 03:23:08;;;;;;;82.02;40.38;;;;;;;-3.43;90.88;102226.86;1480553;88;21598;-82
2022/12/20 03:25:34;;;;;;;81.42;40.83;;;;;;;-3.41;90.87;102224.68;1475657;88;21414;-81
2022/12/20 03:28:00;;;;;;;75.85;37.28;;;;;;;-3.37;90.74;102229.38;1473405;88;22221;-83
2022/12/20 03:30:26;;;;;;;85.20;42.55;;;;;;;-3.37;90.77;102229.38;1476347;88;21377;-82
2022/12/20 03:32:52;;;;;;;74.65;38.50;;;;;;;-3.34;90.61;102229.35;1470250;88;22265;-81
2022/12/20 03:35:18;;;;;;;85.17;42.17;;;;;;;-3.30;90.55;102231.06;1472548;88;21370;-82
2022/12/20 03:37:44;;;;;;;96.77;48.13;;;;;;;-3.28;90.38;102229.73;1469707;88;21692;-81
2022/12/20 03:40:12;;;;;;;90.87;48.80;;;;;;;-3.26;90.32;102221.08;1475796;88;21711;-82
2022/12/20 03:42:38;;;;;;;83.30;43.20;;;;;;;-3.22;90.46;102229.25;1480699;88;22472;-84
2022/12/20 03:45:06;;;;;;;83.65;40.38;;;;;;;-3.19;90.40;102222.75;1476207;88;21393;-86
2022/12/20 03:47:33;;;;;;;84.00;40.05;;;;;;;-3.15;90.19;102224.01;1473151;88;22442;-84
2022/12/20 03:49:59;;;;;;;70.05;35.70;;;;;;;-3.14;90.04;102226.56;1467807;88;21297;-85
2022/12/20 03:52:25;;;;;;;76.02;37.83;;;;;;;-3.14;90.08;102217.94;1471566;88;21437;-84
2022/12/20 03:54:51;;;;;;;79.37;41.65;;;;;;;-3.18;90.31;102220.56;1478541;88;21350;-84
2022/12/20 03:57:17;;;;;;;76.82;38.33;;;;;;;-3.19;90.17;102214.98;1476634;88;22198;-82
2022/12/20 03:59:43;;;;;;;79.82;42.05;;;;;;;-3.19;90.68;102223.19;1477341;88;21429;-83
2022/12/20 04:02:10;;;;;;;82.02;39.15;;;;;;;-3.17;90.39;102218.39;1464962;88;21304;-84
2022/12/20 04:04:36;;;;;;;72.72;37.33;;;;;;;-3.13;90.27;102209.31;1472866;88;21563;-83
2022/12/20 04:07:02;;;;;;;70.42;35.63;;;;;;;-3.10;90.25;102210.58;1465376;88;21364;-84
2022/12/20 04:09:28;;;;;;;75.57;37.58;;;;;;;-3.10;90.20;102217.05;1472577;88;21326;-83
2022/12/20 04:11:54;;;;;;;69.85;35.48;;;;;;;-3.10;90.10;102218.34;1469522;88;21554;-83
2022/12/20 04:14:21;;;;;;;71.40;35.75;;;;;;;-3.08;89.99;102208.80;1481996;88;21356;-84
2022/12/20 04:16:47;;;;;;;70.52;35.98;;;;;;;-3.05;89.89;102212.66;1472120;88;21281;-81
2022/12/20 04:19:13;;;;;;;67.67;34.45;;;;;;;-3.04;89.77;102212.66;1480404;88;22147;-82
2022/12/20 04:21:39;;;;;;;65.63;33.97;;;;;;;-2.98;89.95;102207.39;1477586;88;21414;-83
2022/12/20 04:24:05;;;;;;;74.17;35.50;;;;;;;-2.98;89.95;102207.39;1476697;88;22661;-83
2022/12/20 04:26:31;;;;;;;76.20;37.85;;;;;;;-3.00;89.73;102206.55;1471377;88;21355;-83
2022/12/20 04:28:58;;;;;;;58.63;30.52;;;;;;;-2.97;89.71;102204.36;1482261;88;22204;-83
2022/12/20 04:31:24;;;;;;;59.88;30.08;;;;;;;-2.98;89.64;102210.44;1468628;88;21378;-83
2022/12/20 04:33:51;;;;;;;56.98;28.35;;;;;;;-2.96;89.66;102220.34;1470120;88;21610;-81
2022/12/20 04:36:18;;;;;;;53.60;27.62;;;;;;;-2.93;89.80;102217.72;1476048;88;21324;-82
2022/12/20 04:38:44;;;;;;;55.03;29.32;;;;;;;-2.90;89.51;102211.65;1476175;88;21363;-83
2022/12/20 04:41:20;;;;;;;63.07;31.17;;;;;;;-2.89;89.52;102212.91;1472212;88;21370;-81
2022/12/20 04:43:37;;;;;;;72.97;36.05;;;;;;;-2.89;89.52;102212.91;1481854;88;21865;-81
2022/12/20 04:46:04;;;;;;;66.10;34.10;;;;;;;-2.87;89.29;102215.05;1477748;88;21544;-81
2022/12/20 04:48:30;;;;;;;66.33;31.30;;;;;;;-2.84;89.38;102215.46;1479910;88;21756;-82
2022/12/20 04:50:56;;;;;;;69.17;33.10;;;;;;;-2.80;89.44;102209.34;1471164;88;21348;-81
2022/12/20 04:56:08;;;;;;;64.42;32.67;;;;;;;-2.80;89.03;102207.61;1472504;88;21535;-83
2022/12/20 04:58:34;;;;;;;61.73;30.92;;;;;;;-2.81;89.30;102209.80;1469477;88;21326;-82
2022/12/20 05:01:00;;;;;;;67.93;32.50;;;;;;;-2.81;89.05;102206.35;1484083;88;21458;-82
2022/12/20 05:03:26;;;;;;;59.60;30.55;;;;;;;-2.82;89.02;102202.02;1474467;88;21501;-82
2022/12/20 05:05:53;;;;;;;62.13;30.32;;;;;;;-2.82;89.68;102197.73;1472757;88;21379;-82
2022/12/20 05:08:19;;;;;;;66.87;32.75;;;;;;;-2.85;89.54;102195.17;1470869;88;21384;-85
2022/12/20 05:10:47;;;;;;;67.62;33.83;;;;;;;-2.86;89.44;102195.17;1476828;88;21334;-85
2022/12/20 05:13:14;;;;;;;61.80;31.85;;;;;;;-2.87;89.54;102189.59;1449696;88;21503;-83
2022/12/20 05:15:42;;;;;;;61.95;30.82;;;;;;;-2.88;89.41;102192.59;1479312;88;21275;-86
2022/12/20 05:18:08;;;;;;;64.90;32.75;;;;;;;-2.88;89.34;102187.41;1474103;88;21429;-83
2022/12/20 05:20:34;;;;;;;63.10;32.25;;;;;;;-2.88;89.42;102193.03;1476148;88;21378;-83
2022/12/20 05:28:34;;;;;;;105.67;46.88;;;;;;;-2.86;89.63;102186.11;1473397;88;21407;-81
2022/12/20 05:31:01;;;;;;;62.17;31.33;;;;;;;-2.84;89.72;102181.33;1472023;88;21588;-83
2022/12/20 05:33:28;;;;;;;62.48;32.45;;;;;;;-2.82;89.68;102170.92;1471700;88;22287;-84
2022/12/20 05:35:55;;;;;;;62.95;31.20;;;;;;;-2.81;89.65;102170.92;1471341;88;21318;-85
2022/12/20 05:38:22;;;;;;;55.43;29.15;;;;;;;-2.79;89.53;102170.47;1474132;88;21407;-82
2022/12/20 05:40:50;;;;;;;58.08;30.15;;;;;;;-2.78;89.73;102172.17;1480727;88;21509;-83
2022/12/20 05:43:17;;;;;;;58.38;28.25;;;;;;;-2.77;89.57;102175.63;1469976;88;21362;-82
2022/12/20 05:45:47;;;;;;;57.53;29.48;;;;;;;-2.76;89.56;102171.73;1472184;88;22310;-82
2022/12/20 05:48:15;;;;;;;56.48;26.20;;;;;;;-2.72;89.58;102167.35;1479368;88;21362;-83
2022/12/20 05:50:43;;;;;;;70.12;36.08;;;;;;;-2.72;89.50;102161.72;1468109;88;21451;-82
2022/12/20 05:53:12;;;;;;;79.27;38.92;;;;;;;-2.72;89.40;102161.72;1476173;88;22140;-82
2022/12/20 05:55:46;;;;;;;129.68;60.25;;;;;;;-2.77;89.92;102154.44;1484311;88;21444;-82
2022/12/20 05:58:12;;;;;;;97.80;45.95;;;;;;;-2.81;90.11;102154.52;1471916;88;21355;-83
2022/12/20 06:00:41;;;;;;;72.25;35.00;;;;;;;-2.86;89.95;102146.80;1478915;88;21451;-82
2022/12/20 06:03:09;;;;;;;65.25;32.05;;;;;;;-2.86;90.00;102145.50;1476607;88;21492;-82
2022/12/20 06:05:38;;;;;;;67.20;34.73;;;;;;;-2.85;90.01;102149.83;1466751;88;21555;-82
2022/12/20 06:08:06;;;;;;;82.95;40.85;;;;;;;-2.81;90.05;102155.37;1472352;88;22450;-79
2022/12/20 06:10:33;;;;;;;83.40;41.25;;;;;;;-2.78;90.06;102150.59;1472145;88;22241;-82
2022/12/20 06:13:01;;;;;;;78.33;39.40;;;;;;;-2.76;90.04;102152.73;1469025;88;21665;-82
2022/12/20 06:15:30;;;;;;;71.33;36.77;;;;;;;-2.74;90.06;102144.03;1470125;88;21377;-82
2022/12/20 06:17:57;;;;;;;67.62;34.27;;;;;;;-2.73;89.88;102150.95;1469577;88;21355;-81
2022/12/20 06:20:23;;;;;;;65.08;32.88;;;;;;;-2.68;89.88;102144.83;1458551;88;21414;-82
2022/12/20 06:22:49;;;;;;;60.83;32.90;;;;;;;-2.66;89.82;102153.01;1473245;88;21362;-81
2022/12/20 06:25:16;;;;;;;72.33;35.13;;;;;;;-2.66;89.84;102149.56;1476196;88;21334;-86
2022/12/20 06:27:42;;;;;;;63.68;32.05;;;;;;;-2.65;89.84;102143.49;1478968;88;21363;-82
2022/12/20 06:30:11;;;;;;;63.60;32.40;;;;;;;-2.63;89.84;102150.38;1474874;88;22353;-84
2022/12/20 06:32:38;;;;;;;56.00;28.95;;;;;;;-2.62;89.89;102153.81;1468267;88;21628;-83
2022/12/20 06:35:05;;;;;;;61.98;33.15;;;;;;;-2.61;89.77;102152.96;1471137;88;21267;-85
2022/12/20 06:37:33;;;;;;;60.50;32.15;;;;;;;-2.59;89.72;102153.36;1468515;88;21430;-84
2022/12/20 06:40:01;;;;;;;64.70;32.03;;;;;;;-2.56;89.79;102155.02;1466451;88;21510;-83
2022/12/20 06:42:27;;;;;;;61.95;29.90;;;;;;;-2.54;89.77;102154.57;1472488;88;21379;-83
2022/12/20 06:44:53;;;;;;;84.20;36.88;;;;;;;-2.50;89.71;102152.37;1471178;88;22214;-83
2022/12/20 06:47:19;;;;;;;82.10;37.60;;;;;;;-2.45;89.71;102158.33;1476811;88;21362;-82
2022/12/20 06:49:45;;;;;;;85.65;39.08;;;;;;;-2.41;89.67;102154.83;1482771;88;22954;-82
2022/12/20 06:52:11;;;;;;;77.17;36.45;;;;;;;-2.36;89.58;102162.11;1476668;88;21289;-84
2022/12/20 06:54:37;;;;;;;76.50;34.67;;;;;;;-2.32;89.48;102163.76;1475096;88;21386;-83
2022/12/20 06:57:03;;;;;;;72.37;34.33;;;;;;;-2.32;89.15;102168.09;1477766;88;21539;-84
2022/12/20 06:59:29;;;;;;;74.20;33.87;;;;;;;-2.29;89.38;102163.71;1472790;88;22065;-84
2022/12/20 07:01:55;;;;;;;71.75;34.88;;;;;;;-2.25;89.53;102162.36;1477149;88;22087;-85
2022/12/20 07:04:21;;;;;;;74.97;35.57;;;;;;;-2.20;89.89;102157.97;1477256;88;21325;-85
2022/12/20 07:06:47;;;;;;;71.47;35.07;;;;;;;-2.22;89.98;102145.45;1476042;88;21318;-84
2022/12/20 07:09:13;;;;;;;62.17;32.43;;;;;;;-2.08;89.91;102150.84;1476544;88;23039;-84
2022/12/20 07:11:42;;;;;;;79.72;34.13;;;;;;;-2.08;89.91;102150.84;1476037;88;21464;-85
2022/12/20 07:14:08;;;;;;;73.10;34.90;;;;;;;-1.98;89.95;102150.27;1472431;88;21392;-86
2022/12/20 07:16:35;;;;;;;73.33;34.80;;;;;;;-1.89;89.79;102151.41;1449586;88;21459;-84
2022/12/20 07:19:02;;;;;;;72.35;35.50;;;;;;;-1.82;89.67;102147.81;1471854;88;21452;-85
2022/12/20 07:21:28;;;;;;;61.23;30.37;;;;;;;-1.74;89.24;102152.03;1467646;88;21459;-85
2022/12/20 07:23:55;;;;;;;65.50;30.17;;;;;;;-1.70;89.10;102151.08;1478898;88;21393;-84
2022/12/20 07:26:21;;;;;;;58.28;28.98;;;;;;;-1.64;89.08;102158.34;1458073;88;21348;-84
2022/12/20 07:28:47;;;;;;;61.65;30.68;;;;;;;-1.57;88.84;102148.69;1472561;88;22340;-83
2022/12/20 07:31:13;;;;;;;54.30;27.77;;;;;;;-1.52;88.56;102140.83;1474918;88;21429;-82
2022/12/20 07:33:39;;;;;;;64.63;31.90;;;;;;;-1.48;88.28;102139.42;1478197;88;21656;-84
2022/12/20 07:36:09;;;;;;;66.47;31.07;;;;;;;-1.43;88.23;102146.70;1473975;88;22468;-84
2022/12/20 07:38:36;;;;;;;61.08;29.87;;;;;;;-1.39;88.17;102147.03;1474499;88;21682;-83
2022/12/20 07:41:12;;;;;;;53.87;27.82;;;;;;;-1.38;87.67;102142.28;1472881;88;22212;-83
2022/12/20 07:43:38;;;;;;;60.48;29.70;;;;;;;-1.34;86.99;102147.41;1477018;88;21266;-83
2022/12/20 07:46:06;;;;;;;58.28;31.40;;;;;;;-1.33;87.16;102146.52;1474238;88;21370;-84
2022/12/20 07:48:33;;;;;;;62.13;29.63;;;;;;;-1.29;87.43;102145.59;1469840;88;21400;-83
2022/12/20 07:51:04;;;;;;;56.28;27.77;;;;;;;-1.25;86.67;102147.23;1477260;88;21580;-84
2022/12/20 07:53:32;;;;;;;58.97;29.77;;;;;;;-1.20;86.98;102141.50;1471814;88;21363;-83
2022/12/20 07:56:00;;;;;;;59.40;29.33;;;;;;;-1.15;86.69;102134.03;1470320;88;21671;-90
2022/12/20 07:58:29;;;;;;;60.30;32.03;;;;;;;-1.05;87.17;102130.79;1472910;88;21610;-91
2022/12/20 08:00:56;;;;;;;60.27;34.53;;;;;;;-0.99;86.59;102122.86;1477988;88;21606;-92
2022/12/20 08:03:28;;;;;;;57.97;31.83;;;;;;;-0.90;86.78;102119.20;1459867;88;21912;-92
2022/12/20 08:06:02;;;;;;;61.27;32.13;;;;;;;-0.80;86.61;102122.03;1469823;88;21566;-92
2022/12/20 08:08:27;;;;;;;60.50;29.73;;;;;;;-0.70;86.43;102123.98;1478043;88;21583;-93
2022/12/20 08:10:53;;;;;;;62.00;30.33;;;;;;;-0.60;86.71;102111.19;1475503;88;21633;-89
2022/12/20 08:13:19;;;;;;;58.87;28.20;;;;;;;-0.49;86.50;102120.03;1479799;88;21654;-88
2022/12/20 08:15:45;;;;;;;53.50;30.13;;;;;;;-0.42;85.79;102120.77;1479793;88;21326;-85
2022/12/20 08:18:12;;;;;;;63.00;29.83;;;;;;;-0.34;85.94;102114.94;1475461;88;21356;-88
2022/12/20 08:20:38;;;;;;;59.47;30.43;;;;;;;-0.28;85.96;102118.69;1475548;88;21594;-88
2022/12/20 08:23:04;;;;;;;59.03;29.97;;;;;;;-0.24;85.45;102121.61;1477189;88;22438;-90
2022/12/20 08:25:30;;;;;;;56.80;29.13;;;;;;;-0.19;85.10;102115.86;1474731;88;22257;-91
2022/12/20 08:27:56;;;;;;;65.20;30.57;;;;;;;-0.20;84.24;102120.67;1474724;88;21661;-90
2022/12/20 08:30:22;;;;;;;65.20;30.77;;;;;;;-0.22;83.41;102121.14;1465012;88;21660;-89
2022/12/20 08:32:48;;;;;;;71.47;30.77;;;;;;;-0.21;83.64;102121.54;1471393;88;21517;-88
2022/12/20 08:35:14;;;;;;;82.40;41.27;;;;;;;-0.22;83.16;102125.05;1480474;88;23014;-88
2022/12/20 08:37:40;;;;;;;67.43;33.70;;;;;;;-0.22;82.84;102115.94;1454649;88;22690;-86
2022/12/20 08:40:08;;;;;;;61.07;29.83;;;;;;;-0.16;83.59;102113.63;1471447;88;21767;-88
2022/12/20 08:42:34;;;;;;;61.80;32.47;;;;;;;-0.09;83.79;102099.56;1478122;88;22408;-90
2022/12/20 08:45:00;;;;;;;64.97;32.60;;;;;;;-0.05;82.87;102099.45;1471903;88;21458;-88
2022/12/20 08:47:29;;;;;;;76.23;38.13;;;;;;;-0.04;82.56;102091.19;1464480;88;21421;-89
2022/12/20 08:49:55;;;;;;;82.93;40.20;;;;;;;0.04;83.13;102087.11;1472041;88;21333;-90
2022/12/20 08:52:21;;;;;;;76.70;39.40;;;;;;;0.09;82.81;102078.73;1469425;88;21479;-86
2022/12/20 08:54:47;;;;;;;79.00;39.00;;;;;;;0.15;83.02;102077.27;1469642;88;21697;-85
2022/12/20 08:57:13;;;;;;;77.93;36.87;;;;;;;0.20;83.11;102080.58;1469793;88;21828;-87
2022/12/20 08:59:47;;;;;;;65.47;32.53;;;;;;;0.23;83.16;102081.80;1474464;88;21458;-87
2022/12/20 09:02:14;;;;;;;66.73;32.90;;;;;;;0.26;83.04;102076.54;1467159;88;21571;-84
2022/12/20 09:04:40;;;;;;;67.30;35.07;;;;;;;0.31;82.84;102074.64;1416814;88;21679;-84
2022/12/20 09:07:06;;;;;;;68.40;34.20;;;;;;;0.35;82.64;102072.38;1560407;88;21397;-84
2022/12/20 09:09:32;;;;;;;62.77;31.67;;;;;;;0.34;81.58;102070.64;1471255;88;21542;-90
2022/12/20 09:11:58;;;;;;;57.93;29.93;;;;;;;0.34;81.89;102069.34;1475896;88;21616;-86
2022/12/20 09:14:24;;;;;;;64.13;33.37;;;;;;;0.35;81.69;102061.11;1474049;88;22349;-89
2022/12/20 09:16:50;;;;;;;55.57;29.47;;;;;;;0.34;81.68;102061.53;1474102;88;21444;-90
2022/12/20 09:19:16;;;;;;;59.93;31.77;;;;;;;0.31;81.35;102062.07;1472669;88;22280;-88
2022/12/20 09:21:43;;;;;;;55.83;31.03;;;;;;;0.35;81.76;102064.56;1456666;88;21491;-89
2022/12/20 09:24:09;;;;;;;57.20;31.00;;;;;;;0.42;81.78;102051.76;1472636;88;21610;-88
2022/12/20 09:26:35;;;;;;;58.23;30.87;;;;;;;0.49;81.81;102051.16;1475217;88;21699;-88
2022/12/20 09:29:04;;;;;;;58.50;30.77;;;;;;;0.56;81.89;102053.13;1474168;88;21573;-90
2022/12/20 09:31:30;;;;;;;93.70;45.43;;;;;;;0.60;81.11;102052.98;1473754;88;22609;-90
2022/12/20 09:33:58;;;;;;;95.87;47.30;;;;;;;0.60;80.43;102052.14;1474178;88;21540;-88
2022/12/20 09:36:27;;;;;;;76.93;41.00;;;;;;;0.66;81.13;102056.74;1386024;89;21465;-86
2022/12/20 09:38:54;;;;;;;56.37;29.17;;;;;;;0.76;81.59;102049.50;1402397;88;22551;-86
2022/12/20 09:41:39;;;;;;;50.90;27.33;;;;;;;0.97;81.96;102041.48;1559589;88;21458;-91
2022/12/20 09:44:27;;;;;;;48.13;28.00;;;;;;;1.22;81.50;102040.28;1559370;88;21488;-90
2022/12/20 09:46:58;;;;;;;52.40;28.47;;;;;;;1.79;80.28;102032.77;1559278;88;21527;-87
2022/12/20 09:49:31;;;;;;;;;;;;;;;2.18;79.83;102029.66;1507419;88;22031;-90
2022/12/20 09:52:54;;;;;;;47.57;26.80;;;;;;;2.60;76.00;102029.48;1475934;88;20267;-88
2022/12/20 09:55:39;;;;;;;53.40;30.43;;;;;;;2.75;77.94;102027.58;1472727;88;22179;-89
2022/12/20 09:58:58;;;;;;;57.47;30.83;;;;;;;2.79;77.00;102019.16;1473653;88;22099;-92
2022/12/20 10:01:28;;;;;;;54.23;28.73;;;;;;;2.90;76.76;102007.83;1473044;88;22137;-90
2022/12/20 10:03:57;;;;;;;48.80;29.87;;;;;;;2.95;74.96;102011.12;1394563;88;22854;-94
2022/12/20 10:06:43;;;;;;;46.23;26.67;;;;;;;2.99;74.38;102010.55;1396828;88;21260;-91
2022/12/20 10:09:43;;;;;;;69.03;35.13;;;;;;;3.06;75.38;102008.95;1554129;88;22010;-92
2022/12/20 10:12:18;;;;;;;60.00;34.27;;;;;;;3.14;75.02;102009.96;1398204;88;22040;-91
2022/12/20 10:15:22;;;;;;;52.43;29.87;;;;;;;3.05;72.90;102004.64;1458073;88;21517;-92
2022/12/20 10:18:22;;;;;;;57.23;31.90;;;;;;;3.12;73.97;101996.92;1469323;88;22494;-91
2022/12/20 10:21:16;;;;;;;62.80;34.45;;;;;;;3.12;72.58;101998.70;1473209;88;22206;-93
2022/12/20 10:24:02;;;;;;;60.67;34.70;;;;;;;3.06;72.80;101995.86;1475260;88;22010;-90
2022/12/20 10:26:32;;;;;;;51.03;29.30;;;;;;;3.06;73.33;102003.72;1472870;88;23164;-90
2022/12/20 10:28:58;;;;;;;63.10;35.73;;;;;;;2.79;69.69;101989.09;1473526;88;21451;-92
2022/12/20 10:31:26;;;;;;;55.93;29.03;;;;;;;2.77;72.32;101972.63;1473492;88;21362;-90
2022/12/20 10:33:52;;;;;;;56.87;32.47;;;;;;;2.74;72.25;101959.67;1476629;88;22115;-92
2022/12/20 10:36:34;;;;;;;61.60;34.17;;;;;;;2.73;72.48;101965.34;1473569;88;23137;-90
2022/12/20 10:39:08;;;;;;;57.17;31.27;;;;;;;2.73;72.21;101965.80;1475495;88;21333;-92
2022/12/20 10:41:47;;;;;;;54.70;30.10;;;;;;;2.71;70.18;101969.34;1475468;88;21997;-89
2022/12/20 10:44:28;;;;;;;46.55;27.45;;;;;;;2.69;70.34;101963.30;1476541;88;21982;-91
2022/12/20 10:46:58;;;;;;;52.07;28.93;;;;;;;2.66;70.18;101954.27;1471951;88;21663;-91
2022/12/20 10:49:35;;;;;;;54.43;30.07;;;;;;;2.62;69.62;101946.17;1475915;88;21758;-93
2022/12/20 10:52:13;;;;;;;48.17;26.47;;;;;;;2.66;70.94;101935.98;1480199;88;22166;-93
2022/12/20 10:54:42;;;;;;;46.27;25.27;;;;;;;2.69;71.04;101932.39;1471451;88;22226;-91
2022/12/20 10:57:28;;;;;;;55.27;26.00;;;;;;;2.64;68.64;101927.80;1435985;88;22010;-90
2022/12/20 11:00:01;;;;;;;44.50;25.23;;;;;;;2.66;70.21;101922.06;1472098;88;22040;-91
2022/12/20 11:02:33;;;;;;;46.03;24.77;;;;;;;2.63;68.65;101918.27;1475421;88;22087;-91
2022/12/20 11:05:11;;;;;;;46.07;26.17;;;;;;;2.62;69.21;101913.95;1473045;88;22048;-92
2022/12/20 11:07:57;;;;;;;46.40;26.77;;;;;;;2.59;67.69;101900.98;1475196;87;21392;-91
2022/12/20 11:10:29;;;;;;;49.30;25.47;;;;;;;2.61;68.07;101901.78;1473995;88;22246;-90
2022/12/20 11:13:01;;;;;;;44.07;25.70;;;;;;;2.58;68.20;101897.98;1475412;88;22128;-93
2022/12/20 11:15:33;;;;;;;43.83;23.80;;;;;;;2.54;65.94;101897.72;1473131;88;22037;-88
2022/12/20 11:18:10;;;;;;;48.00;26.73;;;;;;;2.57;65.00;101903.67;1472343;88;22910;-89
2022/12/20 11:21:09;;;;;;;50.97;26.43;;;;;;;2.71;65.40;101895.28;1454430;88;21435;-92
2022/12/20 11:23:50;;;;;;;50.03;27.20;;;;;;;3.01;67.56;101887.10;1474565;88;22069;-91
2022/12/20 11:26:38;;;;;;;45.48;24.98;;;;;;;3.27;67.15;101896.48;1477841;87;21511;-91
2022/12/20 11:29:22;;;;;;;46.33;26.80;;;;;;;3.52;67.08;101884.05;1472360;88;21428;-90
2022/12/20 11:32:08;;;;;;;47.67;24.17;;;;;;;3.80;65.80;101886.77;1471843;88;21510;-91